メインページ
METAR-TAF:

METAR-TAF

空港 :

ソルトレイクシティ国際空港

ソルトレイクシティ, ユタ州, アメリカ合衆国

緯度: 40-46-41N, 経度: 111-58-10W, 海抜: 1288m

現時点の気象観測

当レポートは32分前の10:54(UTC)に作成
無風
気温 -2°C
湿度 63%
気圧 1034 hPa
視程: 16.1km
高度20000ftの雲は散在している

METAR: KSLC 141054Z 00000KT 10SM SCT200 M02/M08 A3054 RMK AO2 SLP343 T10221083

時間: 04:26 (11:26 UTC)

予報

当レポートは3時間6分前の08:20(UTC)に作成
予報は14日の 08時(UTC)から 15日の 12時(UTC)まで有効
南/南東の風 5kt
視程: 10km
高度18000ftの雲は散在している
14日の 1800時(UTC)から
北/北西の風 6kt
視程: 10km
高度12000ftの雲はほとんどない
高度18000ftの千切れ雲あり
15日の 0300時(UTC)から
南/南東の風 5kt
視程: 10km
高度10000ftの雲はほとんどない
高度18000ftの千切れ雲あり

TAF: KSLC 140820Z 1408/1512 15005KT P6SM SCT180 FM141800 33006KT P6SM FEW120 BKN180 FM150300 15005KT P6SM FEW100 BKN180

4,000以上の空港の気象観測と天気予報(METAR報とTAF報)

利用可能な観測所は地図上に黄色い丸と赤い丸で示す。

丸の上にカーソルを重ねると観測所名を参照できる。

次にクリックすると気象観測と天気予報を参照できる。

マップの切り替え:黒色「×」印の緑ボタンをクリックして拡大、「-」印の緑ボタンをクリックして縮小、緑色の三角印をクリックして隣りの地図に切り替え


METAR-TAF: